createdAt,value
2022-11-12T00:02:03.951Z,7.35
2022-11-12T00:04:30.255Z,7.39
2022-11-12T00:06:56.519Z,7.39
2022-11-12T00:09:22.772Z,7.31
2022-11-12T00:11:48.962Z,7.07
2022-11-12T00:14:15.179Z,7.27
2022-11-12T00:16:41.381Z,7.23
2022-11-12T00:19:07.909Z,7.26
2022-11-12T00:21:34.148Z,7.23
2022-11-12T00:24:00.346Z,7.23
2022-11-12T00:26:26.544Z,7.16
2022-11-12T00:28:52.738Z,7.26
2022-11-12T00:31:18.941Z,7.07
2022-11-12T00:33:45.199Z,7.22
2022-11-12T00:36:11.449Z,7.20
2022-11-12T00:38:37.672Z,7.16
2022-11-12T00:41:03.883Z,7.13
2022-11-12T00:43:30.128Z,7.04
2022-11-12T00:45:56.356Z,7.12
2022-11-12T00:48:22.739Z,6.97
2022-11-12T00:50:49.060Z,7.21
2022-11-12T00:53:15.295Z,7.03
2022-11-12T00:55:41.500Z,7.09
2022-11-12T00:58:07.700Z,7.15
2022-11-12T01:00:33.903Z,7.19
2022-11-12T01:03:00.154Z,7.00
2022-11-12T01:05:26.349Z,7.09
2022-11-12T01:07:55.949Z,7.11
2022-11-12T01:10:22.560Z,7.04
2022-11-12T01:12:48.746Z,7.09
2022-11-12T01:15:16.668Z,7.09
2022-11-12T01:17:42.926Z,7.09
2022-11-12T01:20:09.119Z,7.02
2022-11-12T01:22:35.364Z,6.93
2022-11-12T01:25:01.589Z,6.94
2022-11-12T01:27:27.786Z,7.02
2022-11-12T01:29:54.028Z,6.98
2022-11-12T01:32:20.265Z,7.06
2022-11-12T01:34:46.481Z,7.02
2022-11-12T01:37:12.682Z,7.02
2022-11-12T01:39:38.892Z,7.02
2022-11-12T01:42:05.099Z,6.95
2022-11-12T01:44:31.418Z,7.04
2022-11-12T01:46:57.853Z,7.11
2022-11-12T01:49:24.049Z,7.09
2022-11-12T01:51:50.266Z,6.95
2022-11-12T01:54:16.480Z,6.88
2022-11-12T01:56:42.787Z,6.99
2022-11-12T01:59:09.046Z,7.02
2022-11-12T02:01:35.308Z,6.92
2022-11-12T02:04:01.669Z,6.91
2022-11-12T02:06:27.933Z,7.01
2022-11-12T02:08:54.298Z,7.04
2022-11-12T02:11:20.482Z,7.01
2022-11-12T02:14:00.809Z,7.05
2022-11-12T02:16:27.014Z,6.92
2022-11-12T02:18:53.204Z,7.00
2022-11-12T02:21:19.400Z,6.99
2022-11-12T02:23:45.596Z,7.01
2022-11-12T02:26:11.786Z,6.91
2022-11-12T02:28:37.979Z,6.90
2022-11-12T02:31:04.183Z,6.92
2022-11-12T02:33:30.383Z,6.87
2022-11-12T02:35:56.598Z,6.79
2022-11-12T02:38:22.956Z,6.82
2022-11-12T02:40:49.308Z,6.83
2022-11-12T02:43:15.512Z,6.89
2022-11-12T02:45:41.711Z,6.83
2022-11-12T02:48:07.909Z,6.84
2022-11-12T02:50:34.110Z,6.88
2022-11-12T02:53:00.331Z,6.77
2022-11-12T02:55:26.527Z,6.76
2022-11-12T02:57:52.736Z,6.75
2022-11-12T03:00:18.928Z,6.76
2022-11-12T03:02:58.812Z,6.51
2022-11-12T03:05:25.132Z,6.57
2022-11-12T03:07:51.830Z,6.67
2022-11-12T03:10:18.018Z,6.65
2022-11-12T03:12:44.220Z,6.47
2022-11-12T03:15:10.419Z,6.57
2022-11-12T03:17:36.607Z,6.60
2022-11-12T03:20:02.825Z,6.56
2022-11-12T03:22:29.012Z,6.60
2022-11-12T03:24:55.247Z,6.54
2022-11-12T03:27:21.437Z,6.52
2022-11-12T03:29:47.650Z,6.54
2022-11-12T03:32:13.886Z,6.50
2022-11-12T03:34:40.084Z,6.27
2022-11-12T03:37:09.403Z,6.23
2022-11-12T03:39:36.126Z,6.39
2022-11-12T03:42:02.314Z,6.46
2022-11-12T03:44:28.768Z,6.39
2022-11-12T03:46:55.018Z,6.43
2022-11-12T03:49:21.210Z,6.43
2022-11-12T03:51:47.495Z,6.42
2022-11-12T03:54:13.697Z,6.43
2022-11-12T03:56:39.894Z,6.46
2022-11-12T03:59:06.084Z,6.46
2022-11-12T04:01:32.354Z,6.43
2022-11-12T04:03:58.595Z,6.37
2022-11-12T04:06:43.478Z,6.25
2022-11-12T04:09:09.683Z,5.95
2022-11-12T04:11:36.011Z,6.15
2022-11-12T04:14:02.252Z,5.90
2022-11-12T04:16:47.036Z,6.14
2022-11-12T04:19:31.722Z,6.12
2022-11-12T04:21:57.951Z,5.90
2022-11-12T04:24:42.720Z,5.92
2022-11-12T04:27:08.939Z,5.99
2022-11-12T04:29:53.632Z,6.02
2022-11-12T04:32:19.840Z,6.00
2022-11-12T04:34:46.088Z,6.01
2022-11-12T04:37:12.353Z,5.98
2022-11-12T04:39:38.557Z,5.97
2022-11-12T04:42:23.407Z,6.01
2022-11-12T04:45:05.021Z,5.99
2022-11-12T04:47:31.294Z,5.96
2022-11-12T04:49:57.522Z,5.94
2022-11-12T04:52:23.719Z,5.99
2022-11-12T04:54:49.958Z,5.95
2022-11-12T04:57:16.156Z,5.94
2022-11-12T04:59:42.424Z,5.95
2022-11-12T05:02:08.612Z,5.94
2022-11-12T05:04:34.807Z,5.84
2022-11-12T05:07:01.100Z,5.88
2022-11-12T05:09:27.310Z,5.96
2022-11-12T05:11:55.167Z,5.88
2022-11-12T05:14:21.416Z,5.90
2022-11-12T05:16:47.688Z,5.84
2022-11-12T05:19:13.895Z,5.86
2022-11-12T05:21:59.027Z,5.86
2022-11-12T05:24:40.976Z,5.93
2022-11-12T05:27:07.983Z,5.99
2022-11-12T05:29:34.218Z,5.89
2022-11-12T05:32:00.511Z,5.85
2022-11-12T05:34:26.745Z,5.86
2022-11-12T05:36:52.958Z,5.89
2022-11-12T05:39:19.273Z,5.81
2022-11-12T05:42:11.466Z,5.88
2022-11-12T05:44:31.688Z,5.86
2022-11-12T05:46:57.879Z,5.88
2022-11-12T05:49:24.066Z,5.87
2022-11-12T05:51:50.311Z,5.94
2022-11-12T05:54:16.499Z,5.98
2022-11-12T05:56:42.732Z,5.93
2022-11-12T05:59:09.079Z,6.01
2022-11-12T06:01:38.241Z,6.00
2022-11-12T06:04:04.469Z,6.03
2022-11-12T06:06:30.664Z,6.04
2022-11-12T06:08:57.040Z,5.96
2022-11-12T06:11:23.244Z,6.00
2022-11-12T06:13:49.444Z,6.00
2022-11-12T06:16:15.631Z,5.92
2022-11-12T06:18:41.823Z,6.02
2022-11-12T06:21:20.252Z,5.93
2022-11-12T06:23:46.440Z,5.97
2022-11-12T06:26:12.622Z,5.82
2022-11-12T06:28:38.849Z,5.94
2022-11-12T06:31:05.066Z,5.93
2022-11-12T06:33:31.320Z,5.95
2022-11-12T06:35:57.954Z,6.06
2022-11-12T06:38:24.776Z,6.11
2022-11-12T06:40:51.169Z,6.06
2022-11-12T06:43:17.357Z,6.06
2022-11-12T06:45:43.551Z,6.03
2022-11-12T06:48:09.742Z,6.07
2022-11-12T06:50:35.934Z,6.10
2022-11-12T06:53:02.140Z,6.15
2022-11-12T06:55:28.327Z,6.21
2022-11-12T06:57:54.579Z,6.18
2022-11-12T07:00:20.796Z,6.12
2022-11-12T07:02:47.166Z,6.21
2022-11-12T07:05:13.363Z,6.21
2022-11-12T07:07:39.942Z,6.31
2022-11-12T07:10:06.171Z,6.39
2022-11-12T07:12:32.364Z,6.36
2022-11-12T07:14:58.583Z,6.28
2022-11-12T07:17:24.773Z,6.33
2022-11-12T07:19:50.958Z,6.31
2022-11-12T07:22:17.302Z,6.31
2022-11-12T07:24:43.553Z,6.32
2022-11-12T07:27:09.748Z,6.03
2022-11-12T07:29:47.467Z,6.23
2022-11-12T07:32:14.526Z,6.25
2022-11-12T07:34:40.726Z,6.29
2022-11-12T07:37:06.956Z,6.28
2022-11-12T07:39:33.169Z,6.32
2022-11-12T07:41:59.359Z,6.44
2022-11-12T07:44:25.981Z,6.43
2022-11-12T07:46:52.196Z,6.40
2022-11-12T07:49:18.393Z,6.50
2022-11-12T07:51:44.599Z,6.45
2022-11-12T07:54:10.788Z,6.56
2022-11-12T07:56:37.002Z,6.57
2022-11-12T07:59:03.279Z,6.57
2022-11-12T08:01:29.558Z,6.59
2022-11-12T08:03:55.808Z,6.85
2022-11-12T08:06:22.026Z,6.86
2022-11-12T08:08:48.219Z,7.10
2022-11-12T08:11:14.452Z,6.89
2022-11-12T08:13:40.708Z,7.03
2022-11-12T08:16:06.891Z,6.93
2022-11-12T08:18:34.085Z,6.92
2022-11-12T08:21:00.560Z,6.53
2022-11-12T08:23:26.767Z,6.77
2022-11-12T08:25:53.007Z,6.84
2022-11-12T08:28:19.258Z,6.86
2022-11-12T08:30:45.461Z,6.95
2022-11-12T08:33:11.712Z,6.98
2022-11-12T08:35:38.008Z,7.06
2022-11-12T08:38:07.776Z,7.26
2022-11-12T08:40:34.012Z,7.40
2022-11-12T08:43:00.297Z,7.60
2022-11-12T08:45:26.534Z,7.81
2022-11-12T08:47:52.831Z,7.88
2022-11-12T08:50:19.057Z,8.01
2022-11-12T08:52:45.267Z,8.33
2022-11-12T08:55:11.454Z,8.39
2022-11-12T08:57:37.658Z,8.61
2022-11-12T09:00:03.863Z,8.66
2022-11-12T09:02:33.520Z,8.92
2022-11-12T09:04:59.724Z,8.70
2022-11-12T09:07:48.860Z,8.69
2022-11-12T09:10:12.110Z,8.92
2022-11-12T09:12:38.427Z,9.18
2022-11-12T09:15:35.866Z,9.37
2022-11-12T09:17:51.245Z,9.22
2022-11-12T09:20:17.519Z,9.38
2022-11-12T09:22:43.763Z,9.45
2022-11-12T09:25:09.974Z,9.48
2022-11-12T09:27:36.241Z,9.54
2022-11-12T09:30:02.534Z,9.57
2022-11-12T09:32:29.214Z,9.97
2022-11-12T09:34:55.549Z,10.04
2022-11-12T09:37:21.958Z,10.09
2022-11-12T09:39:48.217Z,9.71
2022-11-12T09:42:14.610Z,9.58
2022-11-12T09:44:40.871Z,10.04
2022-11-12T09:47:07.988Z,9.60
2022-11-12T09:49:34.206Z,9.98
2022-11-12T09:52:00.462Z,9.68
2022-11-12T09:54:27.007Z,9.70
2022-11-12T09:56:53.263Z,9.80
2022-11-12T09:59:19.588Z,9.67
2022-11-12T10:01:45.916Z,9.60
2022-11-12T10:04:12.216Z,9.65
2022-11-12T10:06:38.519Z,9.93
2022-11-12T10:09:04.803Z,9.89
2022-11-12T10:11:31.180Z,10.07
2022-11-12T10:13:57.461Z,10.10
2022-11-12T10:16:53.476Z,10.43
2022-11-12T10:19:19.739Z,10.57
2022-11-12T10:21:46.009Z,10.88
2022-11-12T10:24:12.268Z,11.15
2022-11-12T10:26:38.533Z,10.92
2022-11-12T10:29:04.796Z,10.94
2022-11-12T10:31:31.063Z,10.99
2022-11-12T10:33:57.315Z,11.15
2022-11-12T10:36:23.618Z,11.15
2022-11-12T10:38:49.911Z,10.87
2022-11-12T10:41:16.186Z,10.97
2022-11-12T10:43:42.441Z,11.21
2022-11-12T10:46:08.789Z,11.29
2022-11-12T10:48:36.104Z,11.57
2022-11-12T10:51:04.086Z,11.67
2022-11-12T10:53:30.263Z,11.87
2022-11-12T10:55:56.694Z,11.85
2022-11-12T10:58:22.972Z,11.87
2022-11-12T11:00:49.298Z,11.95
2022-11-12T11:03:16.086Z,11.98
2022-11-12T11:05:42.347Z,12.13
2022-11-12T11:08:08.609Z,12.17
2022-11-12T11:10:34.878Z,12.25
2022-11-12T11:13:01.144Z,12.02
2022-11-12T11:15:27.394Z,12.03
2022-11-12T11:17:53.679Z,12.10
2022-11-12T11:20:20.220Z,12.35
2022-11-12T11:22:46.484Z,11.99
2022-11-12T11:25:12.756Z,12.30
2022-11-12T11:27:39.085Z,12.45
2022-11-12T11:30:05.362Z,12.46
2022-11-12T11:32:37.023Z,12.39
2022-11-12T11:35:03.784Z,12.37
2022-11-12T11:37:31.426Z,12.48
2022-11-12T11:39:57.678Z,12.41
2022-11-12T11:42:23.940Z,12.65
2022-11-12T11:44:50.218Z,12.78
2022-11-12T11:47:16.491Z,12.72
2022-11-12T11:49:43.222Z,12.86
2022-11-12T11:52:09.483Z,12.81
2022-11-12T11:54:35.790Z,12.94
2022-11-12T11:57:02.042Z,12.53
2022-11-12T11:59:28.486Z,12.76
2022-11-12T12:01:54.752Z,12.84
2022-11-12T12:04:21.055Z,12.83
2022-11-12T12:06:47.358Z,13.21
2022-11-12T12:09:13.652Z,13.00
2022-11-12T12:11:39.914Z,12.88
2022-11-12T12:14:06.166Z,13.16
2022-11-12T12:16:32.435Z,13.34
2022-11-12T12:18:58.707Z,13.15
2022-11-12T12:21:26.406Z,13.12
2022-11-12T12:23:52.693Z,13.35
2022-11-12T12:26:18.950Z,13.35
2022-11-12T12:28:45.289Z,13.27
2022-11-12T12:31:11.551Z,13.42
2022-11-12T12:33:37.824Z,13.24
2022-11-12T12:36:04.100Z,13.17
2022-11-12T12:38:31.970Z,13.21
2022-11-12T12:40:58.848Z,13.33
2022-11-12T12:43:25.158Z,13.36
2022-11-12T12:45:54.460Z,13.22
2022-11-12T12:48:20.774Z,13.48
2022-11-12T12:50:47.063Z,13.46
2022-11-12T12:53:13.321Z,13.41
2022-11-12T12:55:41.402Z,13.31
2022-11-12T12:58:07.601Z,13.46
2022-11-12T13:00:33.985Z,13.48
2022-11-12T13:03:00.328Z,13.39
2022-11-12T13:05:26.603Z,13.40
2022-11-12T13:07:52.860Z,13.41
2022-11-12T13:10:19.257Z,13.45
2022-11-12T13:12:47.599Z,13.38
2022-11-12T13:15:13.922Z,13.52
2022-11-12T13:17:40.211Z,13.42
2022-11-12T13:20:07.435Z,13.41
2022-11-12T13:22:33.715Z,13.46
2022-11-12T13:24:59.969Z,13.29
2022-11-12T13:27:26.242Z,13.38
2022-11-12T13:30:18.282Z,13.46
2022-11-12T13:32:44.732Z,13.25
2022-11-12T13:35:10.991Z,13.30
2022-11-12T13:37:37.419Z,13.18
2022-11-12T13:40:03.952Z,13.26
2022-11-12T13:42:48.431Z,13.10
2022-11-12T13:45:14.684Z,13.33
2022-11-12T13:47:40.933Z,13.24
2022-11-12T13:50:07.286Z,13.32
2022-11-12T13:52:33.616Z,13.30
2022-11-12T13:54:59.887Z,13.34
2022-11-12T13:57:26.937Z,13.37
2022-11-12T13:59:53.133Z,13.41
2022-11-12T14:02:19.387Z,13.35
2022-11-12T14:04:45.650Z,13.32
2022-11-12T14:07:11.963Z,13.20
2022-11-12T14:09:38.807Z,13.07
2022-11-12T14:12:05.116Z,13.06
2022-11-12T14:14:31.378Z,13.12
2022-11-12T14:16:57.730Z,12.97
2022-11-12T14:19:23.995Z,12.81
2022-11-12T14:21:50.258Z,12.64
2022-11-12T14:24:16.519Z,12.80
2022-11-12T14:26:42.838Z,12.78
2022-11-12T14:29:09.108Z,12.62
2022-11-12T14:31:35.423Z,12.53
2022-11-12T14:34:01.683Z,12.24
2022-11-12T14:36:29.528Z,12.38
2022-11-12T14:38:55.987Z,12.26
2022-11-12T14:41:22.262Z,12.22
2022-11-12T14:43:50.139Z,12.14
2022-11-12T14:46:21.284Z,12.08
2022-11-12T14:48:47.587Z,11.98
2022-11-12T14:51:13.898Z,11.89
2022-11-12T14:53:40.178Z,11.84
2022-11-12T14:56:06.448Z,11.74
2022-11-12T14:58:33.008Z,11.60
2022-11-12T15:00:59.329Z,11.55
2022-11-12T15:03:25.995Z,11.42
2022-11-12T15:05:52.619Z,11.43
2022-11-12T15:08:18.871Z,11.28
2022-11-12T15:10:45.151Z,11.23
2022-11-12T15:13:11.442Z,11.12
2022-11-12T15:15:37.708Z,11.04
2022-11-12T15:18:04.080Z,10.92
2022-11-12T15:20:30.371Z,10.38
2022-11-12T15:22:56.638Z,10.60
2022-11-12T15:25:23.055Z,10.58
2022-11-12T15:27:49.375Z,10.63
2022-11-12T15:30:16.214Z,10.10
2022-11-12T15:32:42.504Z,10.36
2022-11-12T15:35:08.792Z,10.37
2022-11-12T15:37:35.066Z,10.27
2022-11-12T15:40:01.824Z,9.63
2022-11-12T15:42:28.179Z,9.75
2022-11-12T15:44:54.444Z,10.01
2022-11-12T15:47:21.456Z,9.90
2022-11-12T15:49:47.920Z,9.91
2022-11-12T15:52:14.180Z,9.87
2022-11-12T15:54:41.333Z,9.24
2022-11-12T15:57:07.690Z,9.25
2022-11-12T15:59:33.963Z,9.61
2022-11-12T16:02:00.212Z,9.62
2022-11-12T16:04:26.495Z,9.58
2022-11-12T16:06:52.795Z,9.52
2022-11-12T16:09:19.102Z,9.42
2022-11-12T16:11:45.378Z,9.38
2022-11-12T16:14:11.693Z,9.18
2022-11-12T16:16:39.603Z,9.29
2022-11-12T16:19:05.879Z,8.87
2022-11-12T16:21:32.312Z,8.79
2022-11-12T16:23:58.588Z,9.06
2022-11-12T16:26:26.335Z,8.66
2022-11-12T16:28:52.592Z,8.75
2022-11-12T16:31:18.926Z,8.93
2022-11-12T16:33:45.224Z,8.57
2022-11-12T16:36:11.512Z,8.73
2022-11-12T16:38:37.791Z,8.78
2022-11-12T16:41:04.125Z,8.84
2022-11-12T16:43:30.667Z,8.25
2022-11-12T16:45:57.016Z,8.40
2022-11-12T16:48:23.212Z,8.62
2022-11-12T16:50:49.715Z,8.57
2022-11-12T16:53:15.969Z,8.55
2022-11-12T16:55:42.286Z,8.39
2022-11-12T16:58:08.687Z,8.44
2022-11-12T17:00:35.189Z,8.29
2022-11-12T17:03:01.485Z,8.38
2022-11-12T17:05:27.768Z,7.87
2022-11-12T17:07:54.037Z,7.81
2022-11-12T17:10:23.922Z,8.19
2022-11-12T17:12:50.153Z,7.87
2022-11-12T17:15:16.414Z,7.69
2022-11-12T17:17:42.647Z,8.08
2022-11-12T17:20:08.958Z,8.09
2022-11-12T17:22:35.546Z,7.61
2022-11-12T17:25:01.746Z,7.80
2022-11-12T17:27:27.943Z,8.02
2022-11-12T17:29:54.155Z,7.50
2022-11-12T17:32:20.406Z,7.92
2022-11-12T17:34:46.698Z,7.98
2022-11-12T17:37:12.918Z,7.82
2022-11-12T17:39:39.120Z,7.94
2022-11-12T17:42:05.341Z,7.71
2022-11-12T17:44:31.615Z,7.88
2022-11-12T17:46:57.801Z,7.88
2022-11-12T17:49:24.538Z,7.78
2022-11-12T17:51:50.736Z,7.87
2022-11-12T17:54:16.939Z,7.86
2022-11-12T17:56:43.198Z,7.97
2022-11-12T17:59:09.458Z,7.66
2022-11-12T18:01:35.814Z,7.72
2022-11-12T18:04:02.131Z,7.83
2022-11-12T18:06:28.346Z,6.90
2022-11-12T18:08:54.557Z,7.52
2022-11-12T18:11:20.746Z,7.39
2022-11-12T18:13:46.941Z,7.56
2022-11-12T18:16:14.805Z,7.60
2022-11-12T18:18:41.220Z,7.21
2022-11-12T18:21:07.475Z,7.44
2022-11-12T18:23:33.661Z,6.80
2022-11-12T18:26:01.680Z,7.41
2022-11-12T18:28:27.943Z,7.16
2022-11-12T18:30:54.142Z,7.38
2022-11-12T18:33:20.350Z,7.08
2022-11-12T18:35:48.314Z,7.26
2022-11-12T18:38:14.576Z,7.41
2022-11-12T18:40:40.796Z,7.06
2022-11-12T18:43:06.979Z,7.11
2022-11-12T18:45:33.339Z,6.99
2022-11-12T18:47:59.546Z,7.22
2022-11-12T18:50:25.817Z,7.08
2022-11-12T18:52:52.009Z,7.14
2022-11-12T18:55:18.240Z,6.51
2022-11-12T18:57:44.424Z,6.95
2022-11-12T19:00:10.614Z,6.97
2022-11-12T19:02:36.824Z,7.11
2022-11-12T19:05:03.002Z,6.91
2022-11-12T19:07:29.282Z,7.03
2022-11-12T19:09:55.476Z,6.90
2022-11-12T19:12:21.672Z,6.55
2022-11-12T19:14:47.863Z,6.86
2022-11-12T19:17:14.049Z,6.52
2022-11-12T19:19:40.265Z,6.75
2022-11-12T19:22:06.680Z,6.83
2022-11-12T19:24:32.891Z,6.58
2022-11-12T19:26:59.114Z,6.75
2022-11-12T19:29:25.330Z,6.75
2022-11-12T19:31:51.545Z,6.69
2022-11-12T19:34:17.738Z,6.57
2022-11-12T19:36:43.933Z,6.53
2022-11-12T19:39:10.140Z,6.38
2022-11-12T19:41:36.331Z,6.39
2022-11-12T19:44:04.236Z,6.20
2022-11-12T19:46:32.343Z,6.45
2022-11-12T19:48:58.606Z,6.05
2022-11-12T19:51:24.875Z,6.21
2022-11-12T19:53:51.100Z,6.24
2022-11-12T19:56:17.472Z,6.39
2022-11-12T19:58:43.685Z,5.75
2022-11-12T20:01:09.919Z,5.91
2022-11-12T20:03:36.166Z,6.27
2022-11-12T20:06:02.373Z,6.32
2022-11-12T20:08:29.019Z,6.22
2022-11-12T20:10:55.398Z,6.17
2022-11-12T20:13:21.637Z,5.80
2022-11-12T20:15:47.843Z,6.04
2022-11-12T20:18:14.037Z,6.11
2022-11-12T20:20:40.272Z,5.79
2022-11-12T20:23:06.518Z,5.89
2022-11-12T20:25:32.711Z,6.02
2022-11-12T20:27:58.919Z,5.81
2022-11-12T20:30:25.120Z,5.35
2022-11-12T20:32:51.329Z,5.64
2022-11-12T20:35:22.011Z,5.84
2022-11-12T20:37:49.997Z,5.60
2022-11-12T20:40:16.265Z,5.78
2022-11-12T20:42:42.894Z,5.53
2022-11-12T20:45:09.087Z,5.22
2022-11-12T20:47:35.341Z,5.67
2022-11-12T20:50:01.551Z,4.86
2022-11-12T20:52:27.774Z,5.40
2022-11-12T20:54:53.959Z,5.17
2022-11-12T20:57:20.159Z,5.55
2022-11-12T20:59:49.132Z,5.43
2022-11-12T21:02:17.392Z,5.12
2022-11-12T21:04:43.849Z,5.03
2022-11-12T21:07:10.369Z,5.27
2022-11-12T21:09:36.620Z,5.33
2022-11-12T21:12:02.808Z,5.36
2022-11-12T21:14:28.997Z,5.32
2022-11-12T21:16:55.191Z,5.21
2022-11-12T21:19:21.402Z,5.23
2022-11-12T21:21:47.586Z,4.87
2022-11-12T21:24:13.968Z,5.17
2022-11-12T21:26:40.211Z,4.73
2022-11-12T21:29:07.148Z,5.12
2022-11-12T21:31:33.362Z,5.05
2022-11-12T21:34:00.423Z,5.08
2022-11-12T21:36:26.615Z,4.81
2022-11-12T21:38:52.922Z,5.05
2022-11-12T21:41:19.118Z,5.08
2022-11-12T21:43:45.522Z,4.81
2022-11-12T21:46:11.735Z,4.99
2022-11-12T21:48:37.922Z,4.53
2022-11-12T21:51:04.159Z,4.68
2022-11-12T21:53:30.367Z,4.65
2022-11-12T21:55:56.554Z,4.89
2022-11-12T21:58:22.757Z,5.08
2022-11-12T22:00:48.952Z,5.20
2022-11-12T22:03:15.211Z,5.31
2022-11-12T22:05:41.395Z,5.38
2022-11-12T22:08:07.655Z,5.12
2022-11-12T22:10:33.898Z,5.22
2022-11-12T22:13:25.320Z,5.33
2022-11-12T22:15:46.348Z,5.53
2022-11-12T22:18:12.582Z,5.53
2022-11-12T22:20:38.783Z,5.53
2022-11-12T22:23:05.004Z,5.63
2022-11-12T22:25:31.194Z,5.63
2022-11-12T22:28:01.193Z,5.51
2022-11-12T22:30:27.388Z,5.40
2022-11-12T22:32:53.643Z,5.55
2022-11-12T22:35:19.821Z,5.67
2022-11-12T22:37:46.080Z,5.67
2022-11-12T22:40:13.655Z,5.63
2022-11-12T22:42:40.095Z,5.58
2022-11-12T22:45:06.289Z,5.49
2022-11-12T22:47:32.526Z,5.73
2022-11-12T22:49:58.859Z,5.51
2022-11-12T22:52:25.046Z,5.53
2022-11-12T22:54:51.232Z,5.55
2022-11-12T22:57:17.428Z,5.53
2022-11-12T22:59:43.675Z,5.69
2022-11-12T23:02:09.867Z,5.69
2022-11-12T23:04:36.052Z,5.77
2022-11-12T23:07:02.361Z,5.67
2022-11-12T23:09:28.570Z,5.69
2022-11-12T23:11:54.786Z,5.72
2022-11-12T23:14:21.146Z,5.78
2022-11-12T23:16:47.349Z,5.67
2022-11-12T23:19:13.569Z,5.78
2022-11-12T23:21:39.777Z,5.80
2022-11-12T23:24:05.962Z,5.78
2022-11-12T23:26:33.277Z,5.80
2022-11-12T23:28:59.551Z,5.70
2022-11-12T23:31:25.734Z,5.65
2022-11-12T23:33:51.924Z,5.59
2022-11-12T23:36:18.126Z,5.60
2022-11-12T23:38:44.360Z,5.51
2022-11-12T23:41:10.602Z,5.52
2022-11-12T23:43:36.792Z,5.46
2022-11-12T23:46:02.982Z,5.41
2022-11-12T23:48:29.566Z,5.37
2022-11-12T23:50:55.947Z,5.30
2022-11-12T23:53:22.216Z,5.26
2022-11-12T23:55:48.410Z,5.18
2022-11-12T23:58:14.598Z,5.18
